createdAt,value
2022-11-24T00:01:49.059Z,98042.22
2022-11-24T00:04:17.894Z,98048.25
2022-11-24T00:06:48.082Z,98048.28
2022-11-24T00:09:17.078Z,98036.44
2022-11-24T00:11:45.905Z,98040.97
2022-11-24T00:14:14.862Z,98036.94
2022-11-24T00:16:44.103Z,98036.16
2022-11-24T00:19:18.373Z,98039.41
2022-11-24T00:21:49.943Z,98047.16
2022-11-24T00:24:18.925Z,98041.81
2022-11-24T00:26:47.886Z,98044.25
2022-11-24T00:29:16.903Z,98046.69
2022-11-24T00:31:45.718Z,98044.25
2022-11-24T00:34:16.113Z,98048.22
2022-11-24T00:36:45.086Z,98043.19
2022-11-24T00:39:17.448Z,98049.75
2022-11-24T00:41:46.387Z,98048.22
2022-11-24T00:44:15.235Z,98057.34
2022-11-24T00:46:44.211Z,98064.44
2022-11-24T00:49:13.176Z,98060.38
2022-11-24T00:51:42.110Z,98065.25
2022-11-24T00:54:10.981Z,98068.28
2022-11-24T00:56:41.182Z,98067.25
2022-11-24T00:59:10.245Z,98066.00
2022-11-24T01:01:39.220Z,98065.25
2022-11-24T01:04:08.124Z,98067.66
2022-11-24T01:06:38.154Z,98069.59
2022-11-24T01:09:06.978Z,98073.81
2022-11-24T01:11:51.385Z,98081.94
2022-11-24T01:14:22.153Z,98083.38
2022-11-24T01:16:51.175Z,98082.22
2022-11-24T01:19:20.397Z,98090.38
2022-11-24T01:21:49.611Z,98083.91
2022-11-24T01:24:20.537Z,98089.84
2022-11-24T01:26:49.329Z,98086.66
2022-11-24T01:29:18.133Z,98092.66
2022-11-24T01:31:48.344Z,98092.66
2022-11-24T01:34:17.188Z,98098.84
2022-11-24T01:36:46.144Z,98093.81
2022-11-24T01:39:15.102Z,98096.16
2022-11-24T01:41:44.290Z,98105.94
2022-11-24T01:44:25.724Z,98097.66
2022-11-24T01:47:02.000Z,98097.63
2022-11-24T01:49:41.061Z,98097.78
2022-11-24T01:52:17.259Z,98105.81
2022-11-24T01:54:52.914Z,98104.84
2022-11-24T01:57:35.059Z,98109.88
2022-11-24T02:00:30.247Z,98107.72
2022-11-24T02:03:01.407Z,98110.97
2022-11-24T02:06:00.638Z,98110.22
2022-11-24T02:08:39.681Z,98111.47
2022-11-24T02:11:09.482Z,98111.47
2022-11-24T02:13:41.350Z,98122.41
2022-11-24T02:16:13.636Z,98118.44
2022-11-24T02:18:45.477Z,98120.09
2022-11-24T02:21:17.693Z,98116.16
2022-11-24T02:23:57.035Z,98117.28
2022-11-24T02:26:47.373Z,98116.41
2022-11-24T02:29:17.053Z,98115.72
2022-11-24T02:31:52.543Z,98121.06
2022-11-24T02:34:21.522Z,98120.13
2022-11-24T02:36:50.494Z,98115.66
2022-11-24T02:39:19.633Z,98115.75
2022-11-24T02:41:58.238Z,98120.03
2022-11-24T02:44:34.440Z,98120.91
2022-11-24T02:47:06.997Z,98122.78
2022-11-24T02:49:36.141Z,98125.66
2022-11-24T02:52:05.940Z,98124.25
2022-11-24T02:54:35.649Z,98123.63
2022-11-24T02:57:06.572Z,98125.25
2022-11-24T02:59:35.504Z,98117.88
2022-11-24T03:02:12.591Z,98121.19
2022-11-24T03:04:41.494Z,98122.78
2022-11-24T03:07:10.963Z,98127.28
2022-11-24T03:09:39.886Z,98125.84
2022-11-24T03:12:10.505Z,98130.53
2022-11-24T03:14:39.273Z,98126.31
2022-11-24T03:17:08.204Z,98128.13
2022-11-24T03:19:37.012Z,98134.41
2022-11-24T03:22:06.010Z,98139.03
2022-11-24T03:24:35.072Z,98142.28
2022-11-24T03:27:04.050Z,98142.84
2022-11-24T03:29:34.600Z,98135.13
2022-11-24T03:32:03.731Z,98141.53
2022-11-24T03:34:41.515Z,98143.34
2022-11-24T03:37:15.959Z,98149.50
2022-11-24T03:39:49.780Z,98144.03
2022-11-24T03:42:24.053Z,98143.84
2022-11-24T03:44:54.242Z,98156.53
2022-11-24T03:47:23.143Z,98156.34
2022-11-24T03:49:52.025Z,98164.44
2022-11-24T03:52:20.924Z,98161.59
2022-11-24T03:56:10.641Z,98159.63
2022-11-24T03:58:40.387Z,98157.53
2022-11-24T04:01:10.816Z,98162.19
2022-11-24T04:03:39.646Z,98163.81
2022-11-24T04:06:08.472Z,98165.25
2022-11-24T04:08:37.309Z,98164.84
2022-11-24T04:11:07.235Z,98167.84
2022-11-24T04:13:35.141Z,98170.53
2022-11-24T04:16:07.716Z,98166.91
2022-11-24T04:18:38.063Z,98184.75
2022-11-24T04:21:07.240Z,98189.22
2022-11-24T04:23:36.059Z,98179.13
2022-11-24T04:26:04.931Z,98181.59
2022-11-24T04:28:33.689Z,98180.84
2022-11-24T04:31:04.237Z,98189.31
2022-11-24T04:33:33.315Z,98194.97
2022-11-24T04:36:03.651Z,98197.91
2022-11-24T04:39:25.819Z,98207.81
2022-11-24T04:41:21.336Z,98205.22
2022-11-24T04:43:51.382Z,98205.66
2022-11-24T04:46:20.398Z,98213.81
2022-11-24T04:48:49.309Z,98206.53
2022-11-24T04:51:19.511Z,98218.31
2022-11-24T04:53:53.058Z,98221.56
2022-11-24T04:56:22.009Z,98216.47
2022-11-24T04:58:52.945Z,98228.69
2022-11-24T05:01:21.876Z,98229.69
2022-11-24T05:03:50.785Z,98234.16
2022-11-24T05:06:21.033Z,98225.47
2022-11-24T05:08:51.146Z,98233.38
2022-11-24T05:11:20.955Z,98231.31
2022-11-24T05:13:57.979Z,98239.03
2022-11-24T05:16:27.415Z,98246.31
2022-11-24T05:18:56.169Z,98251.16
2022-11-24T05:21:26.449Z,98251.41
2022-11-24T05:23:55.333Z,98243.94
2022-11-24T05:26:29.771Z,98252.44
2022-11-24T05:28:58.967Z,98251.63
2022-11-24T05:31:28.036Z,98250.38
2022-11-24T05:33:57.101Z,98252.81
2022-11-24T05:36:44.876Z,98252.84
2022-11-24T05:39:13.626Z,98261.19
2022-11-24T05:41:44.086Z,98254.94
2022-11-24T05:44:38.351Z,98262.28
2022-11-24T05:47:29.802Z,98270.84
2022-11-24T05:50:01.010Z,98276.91
2022-11-24T05:52:31.214Z,98270.63
2022-11-24T05:55:00.195Z,98278.56
2022-11-24T05:57:29.342Z,98286.06
2022-11-24T06:00:01.394Z,98279.41
2022-11-24T06:02:30.754Z,98284.63
2022-11-24T06:05:00.625Z,98289.09
2022-11-24T06:07:30.921Z,98285.06
2022-11-24T06:09:59.643Z,98290.31
2022-11-24T06:12:28.381Z,98301.38
2022-11-24T06:14:57.362Z,98304.25
2022-11-24T06:17:26.569Z,98309.78
2022-11-24T06:19:55.315Z,98308.38
2022-11-24T06:22:24.166Z,98302.69
2022-11-24T06:24:55.555Z,98314.47
2022-11-24T06:27:25.043Z,98313.25
2022-11-24T06:29:57.422Z,98320.97
2022-11-24T06:32:29.488Z,98316.75
2022-11-24T06:34:58.241Z,98318.22
2022-11-24T06:37:26.974Z,98315.97
2022-11-24T06:39:57.220Z,98318.63
2022-11-24T06:42:25.959Z,98323.09
2022-11-24T06:44:54.819Z,98334.66
2022-11-24T06:47:23.655Z,98336.31
2022-11-24T06:49:52.710Z,98333.69
2022-11-24T06:52:21.664Z,98338.97
2022-11-24T06:54:50.387Z,98330.84
2022-11-24T06:57:20.598Z,98338.59
2022-11-24T06:59:49.947Z,98338.59
2022-11-24T07:02:19.085Z,98339.63
2022-11-24T07:04:47.848Z,98345.72
2022-11-24T07:07:16.641Z,98339.84
2022-11-24T07:09:46.471Z,98349.22
2022-11-24T07:12:15.198Z,98353.91
2022-11-24T07:14:45.439Z,98352.47
2022-11-24T07:17:15.259Z,98356.56
2022-11-24T07:19:45.207Z,98351.69
2022-11-24T07:22:13.973Z,98368.78
2022-11-24T07:24:42.691Z,98365.13
2022-11-24T07:27:11.419Z,98369.41
2022-11-24T07:29:40.162Z,98365.56
2022-11-24T07:32:10.441Z,98376.53
2022-11-24T07:34:39.270Z,98375.16
2022-11-24T07:37:08.209Z,98384.72
2022-11-24T07:39:37.110Z,98383.69
2022-11-24T07:42:06.899Z,98387.97
2022-11-24T07:44:35.842Z,98387.13
2022-11-24T07:47:05.025Z,98391.44
2022-11-24T07:49:35.185Z,98396.53
2022-11-24T07:52:04.635Z,98397.75
2022-11-24T07:54:33.667Z,98397.38
2022-11-24T07:57:02.689Z,98397.56
2022-11-24T07:59:31.361Z,98396.75
2022-11-24T08:02:00.170Z,98395.75
2022-11-24T08:04:29.095Z,98386.00
2022-11-24T08:06:59.364Z,98397.59
2022-11-24T08:09:28.231Z,98397.44
2022-11-24T08:11:57.159Z,98391.31
2022-11-24T08:14:25.994Z,98403.56
2022-11-24T08:16:54.836Z,98395.25
2022-11-24T08:19:24.070Z,98400.13
2022-11-24T08:21:52.889Z,98413.34
2022-11-24T08:24:24.299Z,98404.00
2022-11-24T08:26:53.070Z,98400.16
2022-11-24T08:29:21.940Z,98401.00
2022-11-24T08:31:50.895Z,98403.66
2022-11-24T08:34:19.714Z,98401.38
2022-11-24T08:36:48.556Z,98408.94
2022-11-24T08:39:17.493Z,98408.13
2022-11-24T08:41:48.232Z,98407.28
2022-11-24T08:44:18.602Z,98405.69
2022-11-24T08:46:47.739Z,98400.00
2022-11-24T08:49:16.772Z,98411.63
2022-11-24T08:51:47.086Z,98411.41
2022-11-24T08:54:18.733Z,98413.47
2022-11-24T08:56:51.547Z,98411.63
2022-11-24T08:59:20.424Z,98414.66
2022-11-24T09:01:49.753Z,98409.41
2022-11-24T09:04:18.755Z,98413.88
2022-11-24T09:06:47.507Z,98415.13
2022-11-24T09:09:16.350Z,98414.91
2022-11-24T09:11:45.265Z,98417.78
2022-11-24T09:14:15.487Z,98420.03
2022-11-24T09:16:44.278Z,98424.09
2022-11-24T09:19:13.241Z,98414.75
2022-11-24T09:21:42.238Z,98418.81
2022-11-24T09:24:12.382Z,98417.63
2022-11-24T09:26:46.174Z,98422.13
2022-11-24T09:29:18.205Z,98422.13
2022-11-24T09:31:47.151Z,98416.63
2022-11-24T09:34:28.921Z,98421.72
2022-11-24T09:36:58.799Z,98418.47
2022-11-24T09:39:27.807Z,98423.38
2022-11-24T09:42:20.953Z,98421.31
2022-11-24T09:45:57.009Z,98430.66
2022-11-24T09:48:27.570Z,98434.34
2022-11-24T09:50:59.981Z,98431.09
2022-11-24T09:53:36.023Z,98427.41
2022-11-24T09:56:23.637Z,98436.00
2022-11-24T09:58:58.826Z,98438.00
2022-11-24T10:01:37.093Z,98432.69
2022-11-24T10:04:16.284Z,98436.78
2022-11-24T10:07:00.422Z,98432.91
2022-11-24T10:09:56.572Z,98439.63
2022-11-24T10:12:48.202Z,98436.56
2022-11-24T10:15:43.748Z,98439.59
2022-11-24T10:18:37.324Z,98442.63
2022-11-24T10:21:30.817Z,98442.81
2022-11-24T10:24:32.330Z,98433.59
2022-11-24T10:27:20.839Z,98439.09
2022-11-24T10:29:55.374Z,98437.66
2022-11-24T10:32:32.656Z,98440.91
2022-11-24T10:35:37.030Z,98440.47
2022-11-24T10:38:31.696Z,98439.03
2022-11-24T10:41:12.056Z,98445.13
2022-11-24T10:43:44.352Z,98441.84
2022-11-24T10:46:24.224Z,98442.44
2022-11-24T10:48:59.804Z,98431.97
2022-11-24T10:52:02.417Z,98432.13
2022-11-24T10:54:31.276Z,98433.13
2022-11-24T10:57:00.446Z,98438.38
2022-11-24T10:59:40.425Z,98435.53
2022-11-24T11:02:35.198Z,98426.94
2022-11-24T11:05:42.405Z,98423.28
2022-11-24T11:08:28.007Z,98429.78
2022-11-24T11:11:20.794Z,98428.34
2022-11-24T11:14:03.440Z,98426.91
2022-11-24T11:16:39.912Z,98432.34
2022-11-24T11:19:48.903Z,98435.81
2022-11-24T11:22:27.932Z,98441.47
2022-11-24T11:25:21.454Z,98437.38
2022-11-24T11:27:51.130Z,98444.69
2022-11-24T11:36:17.155Z,98435.09
2022-11-24T11:38:49.000Z,98429.78
2022-11-24T11:41:26.899Z,98440.78
2022-11-24T11:44:16.744Z,98451.41
2022-11-24T11:46:47.406Z,98446.69
2022-11-24T11:49:18.178Z,98449.34
2022-11-24T11:52:24.356Z,98451.00
2022-11-24T11:55:38.207Z,98452.22
2022-11-24T11:58:45.707Z,98449.13
2022-11-24T12:01:51.503Z,98452.97
2022-11-24T12:04:43.708Z,98450.28
2022-11-24T12:07:37.959Z,98451.28
2022-11-24T12:10:22.718Z,98448.78
2022-11-24T12:13:09.005Z,98448.94
2022-11-24T12:15:46.194Z,98448.13
2022-11-24T12:21:34.420Z,98451.41
2022-11-24T12:24:17.217Z,98462.34
2022-11-24T12:26:53.659Z,98462.94
2022-11-24T12:29:55.081Z,98466.72
2022-11-24T12:32:47.178Z,98467.09
2022-11-24T12:35:28.876Z,98469.91
2022-11-24T12:38:33.123Z,98465.16
2022-11-24T12:41:41.286Z,98473.44
2022-11-24T12:44:32.014Z,98473.94
2022-11-24T12:47:15.475Z,98474.53
2022-11-24T12:50:02.576Z,98468.06
2022-11-24T12:52:39.463Z,98468.53
2022-11-24T12:55:19.530Z,98477.50
2022-11-24T12:58:00.454Z,98478.88
2022-11-24T13:00:39.116Z,98478.88
2022-11-24T13:03:26.934Z,98480.16
2022-11-24T13:06:03.620Z,98484.53
2022-11-24T13:08:33.512Z,98482.31
2022-11-24T13:11:49.808Z,98488.06
2022-11-24T13:14:23.695Z,98498.16
2022-11-24T13:19:51.326Z,98491.31
2022-11-24T13:22:27.352Z,98495.03
2022-11-24T13:25:20.453Z,98486.00
2022-11-24T13:27:57.741Z,98500.81
2022-11-24T13:31:12.657Z,98501.22
2022-11-24T13:33:41.925Z,98498.00
2022-11-24T13:36:34.071Z,98508.06
2022-11-24T13:39:06.302Z,98510.09
2022-11-24T13:42:07.436Z,98516.47
2022-11-24T13:44:49.847Z,98519.34
2022-11-24T13:47:40.718Z,98520.59
2022-11-24T13:50:22.446Z,98525.09
2022-11-24T13:53:01.129Z,98520.25
2022-11-24T13:55:38.866Z,98525.56
2022-11-24T13:58:38.590Z,98524.53
2022-11-24T14:01:21.377Z,98519.78
2022-11-24T14:04:31.612Z,98521.41
2022-11-24T14:07:08.657Z,98526.53
2022-11-24T14:09:45.824Z,98530.44
2022-11-24T14:12:19.206Z,98531.69
2022-11-24T14:14:50.266Z,98539.09
2022-11-24T14:17:28.930Z,98539.09
2022-11-24T14:19:59.616Z,98539.31
2022-11-24T14:22:37.819Z,98543.22
2022-11-24T14:25:08.764Z,98552.25
2022-11-24T14:27:40.211Z,98552.25
2022-11-24T14:30:21.771Z,98557.56
2022-11-24T14:33:01.558Z,98547.75
2022-11-24T14:35:33.541Z,98552.59
2022-11-24T14:38:05.389Z,98555.94
2022-11-24T14:40:44.512Z,98563.31
2022-11-24T14:43:23.045Z,98567.66
2022-11-24T14:45:55.597Z,98569.00
2022-11-24T14:48:30.197Z,98570.06
2022-11-24T14:51:10.104Z,98576.03
2022-11-24T14:53:43.178Z,98585.69
2022-11-24T14:56:25.997Z,98587.16
2022-11-24T14:58:59.348Z,98590.84
2022-11-24T15:01:37.369Z,98595.13
2022-11-24T15:04:46.723Z,98595.72
2022-11-24T15:07:24.681Z,98596.75
2022-11-24T15:09:58.618Z,98603.69
2022-11-24T15:12:34.829Z,98593.50
2022-11-24T15:15:08.087Z,98610.06
2022-11-24T15:17:37.011Z,98593.50
2022-11-24T15:20:18.362Z,98598.81
2022-11-24T15:22:47.196Z,98601.50
2022-11-24T15:25:33.637Z,98613.38
2022-11-24T15:28:02.954Z,98607.06
2022-11-24T15:30:36.027Z,98616.28
2022-11-24T15:33:14.342Z,98618.94
2022-11-24T15:35:45.380Z,98619.97
2022-11-24T15:38:15.492Z,98621.22
2022-11-24T15:40:47.390Z,98633.72
2022-11-24T15:48:18.371Z,98637.41
2022-11-24T15:50:49.296Z,98634.75
2022-11-24T15:53:23.713Z,98645.22
2022-11-24T15:55:54.167Z,98644.41
2022-11-24T15:58:25.654Z,98639.13
2022-11-24T16:00:54.500Z,98651.84
2022-11-24T16:03:46.312Z,98655.75
2022-11-24T16:06:23.656Z,98656.19
2022-11-24T16:08:52.898Z,98663.94
2022-11-24T16:11:23.422Z,98661.69
2022-11-24T16:13:53.711Z,98655.34
2022-11-24T16:16:24.893Z,98663.69
2022-11-24T16:18:55.450Z,98665.13
2022-11-24T16:21:24.874Z,98675.16
2022-11-24T16:23:53.821Z,98668.19
2022-11-24T16:26:22.872Z,98667.97
2022-11-24T16:28:51.680Z,98668.19
2022-11-24T16:31:23.948Z,98666.53
2022-11-24T16:33:54.093Z,98675.34
2022-11-24T16:36:25.377Z,98681.28
2022-11-24T16:38:55.297Z,98683.94
2022-11-24T16:41:25.211Z,98684.53
2022-11-24T16:43:55.857Z,98682.91
2022-11-24T16:46:27.050Z,98688.22
2022-11-24T16:49:01.684Z,98680.44
2022-11-24T16:51:34.978Z,98688.22
2022-11-24T16:54:05.231Z,98690.88
2022-11-24T16:56:34.801Z,98691.91
2022-11-24T16:59:03.805Z,98692.28
2022-11-24T17:01:33.930Z,98697.81
2022-11-24T17:04:08.258Z,98694.97
2022-11-24T17:06:41.397Z,98698.22
2022-11-24T17:09:10.359Z,98706.19
2022-11-24T17:11:39.751Z,98702.31
2022-11-24T17:14:08.616Z,98707.00
2022-11-24T17:16:40.666Z,98706.19
2022-11-24T17:19:10.892Z,98707.22
2022-11-24T17:21:40.318Z,98708.25
2022-11-24T17:24:15.567Z,98718.47
2022-11-24T17:26:48.717Z,98713.97
2022-11-24T17:29:18.157Z,98720.09
2022-11-24T17:31:47.621Z,98720.50
2022-11-24T17:34:17.872Z,98722.53
2022-11-24T17:36:46.776Z,98720.28
2022-11-24T17:39:18.007Z,98720.88
2022-11-24T17:41:49.770Z,98721.69
2022-11-24T17:44:18.756Z,98726.19
2022-11-24T17:46:47.910Z,98724.19
2022-11-24T17:49:18.531Z,98720.72
2022-11-24T17:51:50.693Z,98728.75
2022-11-24T17:54:45.453Z,98729.97
2022-11-24T17:57:10.657Z,98743.06
2022-11-24T17:59:40.093Z,98742.03
2022-11-24T18:02:11.560Z,98742.25
2022-11-24T18:04:41.945Z,98736.50
2022-11-24T18:07:11.294Z,98736.28
2022-11-24T18:09:40.348Z,98740.97
2022-11-24T18:12:15.623Z,98744.03
2022-11-24T18:15:02.916Z,98754.47
2022-11-24T18:17:36.688Z,98740.38
2022-11-24T18:20:12.353Z,98749.16
2022-11-24T18:23:04.680Z,98758.53
2022-11-24T18:25:42.842Z,98745.25
2022-11-24T18:28:14.629Z,98753.66
2022-11-24T18:30:43.965Z,98760.00
2022-11-24T18:33:13.376Z,98765.09
2022-11-24T18:35:44.026Z,98768.78
2022-11-24T18:38:12.989Z,98765.91
2022-11-24T18:40:42.447Z,98764.28
2022-11-24T18:43:11.374Z,98767.16
2022-11-24T18:45:40.555Z,98764.50
2022-11-24T18:48:11.645Z,98757.13
2022-11-24T18:50:46.202Z,98758.53
2022-11-24T18:53:15.179Z,98761.84
2022-11-24T18:55:44.079Z,98761.84
2022-11-24T18:58:13.060Z,98761.63
2022-11-24T19:00:43.955Z,98757.72
2022-11-24T19:03:33.386Z,98763.84
2022-11-24T19:06:09.924Z,98763.25
2022-11-24T19:08:38.990Z,98764.09
2022-11-24T19:11:22.937Z,98762.25
2022-11-24T19:13:52.275Z,98767.97
2022-11-24T19:16:22.508Z,98759.81
2022-11-24T19:18:54.250Z,98761.81
2022-11-24T19:21:24.945Z,98768.81
2022-11-24T19:23:55.201Z,98771.66
2022-11-24T19:26:30.635Z,98774.13
2022-11-24T19:28:59.500Z,98774.53
2022-11-24T19:31:28.414Z,98781.06
2022-11-24T19:33:59.930Z,98786.97
2022-11-24T19:37:00.411Z,98786.38
2022-11-24T19:39:29.943Z,98785.75
2022-11-24T19:41:58.741Z,98784.13
2022-11-24T19:44:27.577Z,98788.84
2022-11-24T19:46:58.412Z,98791.69
2022-11-24T19:49:29.353Z,98791.50
2022-11-24T19:52:03.200Z,98794.75
2022-11-24T19:54:34.653Z,98788.84
2022-11-24T19:57:04.788Z,98799.03
2022-11-24T19:59:33.796Z,98797.84
2022-11-24T20:02:03.012Z,98803.16
2022-11-24T20:04:33.282Z,98797.84
2022-11-24T20:07:04.247Z,98805.38
2022-11-24T20:09:37.721Z,98799.47
2022-11-24T20:12:07.436Z,98811.31
2022-11-24T20:14:38.410Z,98813.78
2022-11-24T20:17:07.446Z,98813.97
2022-11-24T20:19:36.236Z,98823.16
2022-11-24T20:22:10.021Z,98832.56
2022-11-24T20:24:38.804Z,98826.03
2022-11-24T20:27:07.510Z,98833.19
2022-11-24T20:29:36.225Z,98829.28
2022-11-24T20:32:06.187Z,98830.72
2022-11-24T20:34:35.898Z,98832.56
2022-11-24T20:37:04.861Z,98833.78
2022-11-24T20:39:35.528Z,98826.84
2022-11-24T20:42:04.918Z,98831.13
2022-11-24T20:44:33.967Z,98838.69
2022-11-24T20:47:05.192Z,98840.13
2022-11-24T20:49:34.212Z,98843.38
2022-11-24T20:52:03.294Z,98842.19
2022-11-24T20:54:32.207Z,98843.19
2022-11-24T20:57:02.467Z,98838.88
2022-11-24T20:59:31.245Z,98839.09
2022-11-24T21:02:12.147Z,98845.84
2022-11-24T21:04:41.152Z,98845.44
2022-11-24T21:07:16.214Z,98850.13
2022-11-24T21:09:45.054Z,98848.09
2022-11-24T21:12:15.307Z,98853.41
2022-11-24T21:14:44.063Z,98856.28
2022-11-24T21:17:14.199Z,98861.16
2022-11-24T21:19:42.896Z,98865.28
2022-11-24T21:22:11.677Z,98866.69
2022-11-24T21:24:40.443Z,98863.63
2022-11-24T21:27:46.389Z,98858.50
2022-11-24T21:30:16.171Z,98864.63
2022-11-24T21:32:46.829Z,98864.84
2022-11-24T21:35:15.981Z,98862.19
2022-11-24T21:37:45.229Z,98867.28
2022-11-24T21:40:15.054Z,98864.03
2022-11-24T21:42:45.384Z,98860.34
2022-11-24T21:45:14.415Z,98862.41
2022-11-24T21:47:43.584Z,98864.03
2022-11-24T21:50:13.137Z,98874.66
2022-11-24T21:52:41.876Z,98867.28
2022-11-24T21:55:11.059Z,98871.41
2022-11-24T21:57:39.828Z,98878.34
2022-11-24T22:00:11.231Z,98882.84
2022-11-24T22:02:40.009Z,98884.25
2022-11-24T22:05:10.376Z,98880.78
2022-11-24T22:07:39.258Z,98878.75
2022-11-24T22:10:10.139Z,98885.69
2022-11-24T22:12:38.841Z,98886.09
2022-11-24T22:15:10.701Z,98883.63
2022-11-24T22:17:39.448Z,98885.47
2022-11-24T22:20:10.105Z,98893.84
2022-11-24T22:22:38.777Z,98889.34
2022-11-24T22:25:08.660Z,98888.31
2022-11-24T22:27:37.390Z,98895.44
2022-11-24T22:30:07.800Z,98890.53
2022-11-24T22:32:38.030Z,98894.00
2022-11-24T22:35:08.578Z,98895.81
2022-11-24T22:37:37.468Z,98898.91
2022-11-24T22:40:07.691Z,98899.47
2022-11-24T22:42:36.426Z,98896.13
2022-11-24T22:45:06.029Z,98901.44
2022-11-24T22:47:34.739Z,98900.84
2022-11-24T22:50:05.756Z,98903.84
2022-11-24T22:52:34.586Z,98918.94
2022-11-24T22:55:03.328Z,98910.69
2022-11-24T22:57:32.164Z,98912.34
2022-11-24T23:00:00.845Z,98914.84
2022-11-24T23:02:30.199Z,98916.41
2022-11-24T23:04:58.945Z,98924.06
2022-11-24T23:07:29.177Z,98917.53
2022-11-24T23:09:58.079Z,98924.06
2022-11-24T23:12:26.848Z,98918.72
2022-11-24T23:14:55.540Z,98921.53
2022-11-24T23:17:24.260Z,98928.63
2022-11-24T23:19:52.975Z,98936.53
2022-11-24T23:22:21.815Z,98932.25
2022-11-24T23:24:51.952Z,98938.53
2022-11-24T23:27:20.677Z,98925.69
2022-11-24T23:29:49.378Z,98927.91
2022-11-24T23:32:18.081Z,98931.34
2022-11-24T23:34:46.787Z,98927.47
2022-11-24T23:37:15.686Z,98929.56
2022-11-24T23:39:44.346Z,98931.03
2022-11-24T23:42:14.405Z,98931.06
2022-11-24T23:44:43.194Z,98935.16
2022-11-24T23:47:11.940Z,98932.44
2022-11-24T23:49:40.600Z,98933.69
2022-11-24T23:52:09.298Z,98923.31
2022-11-24T23:54:38.022Z,98929.72
2022-11-24T23:57:06.717Z,98924.88
2022-11-24T23:59:36.817Z,98930.97
